Terminal Aerodrome Forecast
Issued by NWS

Home | Current Version | Previous Version | Text Only | Print | Product List | Glossary On
Versions: 1 2 3 4 5 6 7 8 9 10 11 12 13 14 15 16 17 18 19 20 21
000
FTAK31 PANC 242332
TAFACD
TAF
PACD 242332Z 2500/2524 14024G33KT P6SM -RA BKN029 OVC080
     FM250400 13025G35KT 5SM -RA BR OVC021
     FM251100 11016KT P6SM -RA BKN027
     FM251400 08010KT P6SM -RA SCT027 BKN040
     FM252300 36005KT P6SM VCSH SCT010 BKN035=

USA.gov is the U.S. government's official web portal to all federal, state and local government web resources and services.